DGANS EDDS-ZZZZ

Flight info

Callsign DGANS
Flight time N/A
Altitude 3500
Route VFR
Aircraft DA42/L-SDE3GILORVW/LB1

Departure

Time 2026-05-07 12:44
Airport Stuttgart Airport (EDDS)

Arrival

Time N/A
Airport ZZZZ
Time Latitude Longitude Altitude Speed Heading
2026-05-07 12:35 48.69198 9.21475 1252 ft 0 kts 209°
2026-05-07 12:38 48.69199 9.21475 1252 ft 0 kts 209°
2026-05-07 12:39 48.69180 9.21457 1253 ft 7 kts 235°
2026-05-07 12:39 48.69167 9.21383 1252 ft 8 kts 252°
2026-05-07 12:40 48.69149 9.21296 1252 ft 8 kts 236°
2026-05-07 12:40 48.69095 9.21321 1252 ft 10 kts 122°
2026-05-07 12:40 48.69120 9.21500 1252 ft 26 kts 76°
2026-05-07 12:40 48.69174 9.21815 1252 ft 30 kts 71°
2026-05-07 12:41 48.69236 9.22120 1258 ft 31 kts 67°
2026-05-07 12:41 48.69284 9.22392 1257 ft 18 kts 75°
2026-05-07 12:41 48.69204 9.22503 1252 ft 18 kts 157°
2026-05-07 12:41 48.69136 9.22532 1252 ft 6 kts 178°
2026-05-07 12:42 48.69112 9.22521 1252 ft 0 kts 158°
2026-05-07 12:42 48.69086 9.22542 1255 ft 12 kts 160°
2026-05-07 12:42 48.69045 9.22504 1255 ft 4 kts 254°
2026-05-07 12:43 48.69044 9.22493 1252 ft 0 kts 256°
2026-05-07 12:43 48.69005 9.22283 1252 ft 50 kts 253°
2026-05-07 12:43 48.68860 9.21555 1289 ft 86 kts 258°
2026-05-07 12:44 48.68694 9.20690 1581 ft 89 kts 261°
2026-05-07 12:44 48.68466 9.19825 2005 ft 88 kts 235°
2026-05-07 12:44 48.67831 9.19666 2317 ft 112 kts 165°
2026-05-07 12:44 48.67185 9.20398 2522 ft 130 kts 106°
2026-05-07 12:45 48.67184 9.21755 2677 ft 127 kts 77°
2026-05-07 12:45 48.67390 9.23054 2667 ft 130 kts 67°
2026-05-07 12:45 48.67727 9.24323 2574 ft 129 kts 65°
2026-05-07 12:45 48.68214 9.25268 2450 ft 103 kts 22°
2026-05-07 12:46 48.68872 9.25417 2011 ft 93 kts 345°
2026-05-07 12:46 48.69373 9.24907 1632 ft 88 kts 294°
2026-05-07 12:46 48.69322 9.23981 1283 ft 91 kts 262°
2026-05-07 12:46 48.69131 9.23019 1291 ft 100 kts 260°
2026-05-07 12:47 48.68942 9.22001 1349 ft 102 kts 261°
2026-05-07 12:47 48.68723 9.20953 1534 ft 105 kts 254°
2026-05-07 12:47 48.68534 9.19957 1921 ft 95 kts 253°
2026-05-07 12:47 48.67911 9.19713 2187 ft 116 kts 147°
2026-05-07 12:48 48.67326 9.20569 2367 ft 126 kts 102°
2026-05-07 12:48 48.67327 9.21902 2550 ft 134 kts 79°
2026-05-07 12:48 48.67546 9.23331 2547 ft 141 kts 70°
2026-05-07 12:48 48.67742 9.24786 2557 ft 141 kts 76°
2026-05-07 12:49 48.68064 9.26138 2435 ft 131 kts 41°
2026-05-07 12:49 48.68803 9.26389 2184 ft 102 kts 338°
2026-05-07 12:49 48.69278 9.25654 1792 ft 103 kts 303°
2026-05-07 12:49 48.69459 9.24641 1451 ft 101 kts 264°
2026-05-07 12:50 48.69248 9.23602 1295 ft 104 kts 260°
2026-05-07 12:50 48.69046 9.22552 1310 ft 102 kts 258°
2026-05-07 12:50 48.68850 9.21527 1342 ft 101 kts 257°
2026-05-07 12:50 48.68668 9.20523 1493 ft 97 kts 257°
2026-05-07 12:51 48.68335 9.19667 1777 ft 104 kts 201°
2026-05-07 12:51 48.67585 9.19887 1995 ft 114 kts 155°
2026-05-07 12:51 48.66958 9.20600 2202 ft 116 kts 109°
2026-05-07 12:51 48.67122 9.21745 2372 ft 117 kts 60°
2026-05-07 12:52 48.67470 9.22935 2457 ft 130 kts 63°
2026-05-07 12:52 48.67768 9.24262 2522 ft 138 kts 69°
2026-05-07 12:52 48.68137 9.25527 2821 ft 117 kts 35°
2026-05-07 12:52 48.68801 9.25476 3032 ft 106 kts 308°
2026-05-07 12:53 48.68976 9.24297 2979 ft 123 kts 279°
2026-05-07 12:53 48.69068 9.22977 3082 ft 126 kts 273°
2026-05-07 12:53 48.69120 9.21628 3143 ft 132 kts 279°
2026-05-07 12:53 48.69483 9.20351 3234 ft 132 kts 299°
2026-05-07 12:54 48.69990 9.19134 3209 ft 141 kts 299°
2026-05-07 12:54 48.70399 9.17795 3251 ft 141 kts 290°
2026-05-07 12:54 48.70712 9.16378 3205 ft 145 kts 288°
2026-05-07 12:54 48.70941 9.14896 3168 ft 145 kts 280°
2026-05-07 12:55 48.70986 9.13343 3075 ft 150 kts 272°
2026-05-07 12:55 48.71118 9.11787 3046 ft 149 kts 281°
2026-05-07 12:55 48.71347 9.10236 2907 ft 151 kts 287°
2026-05-07 12:55 48.71835 9.08846 2824 ft 149 kts 303°
2026-05-07 12:56 48.72417 9.07532 2744 ft 151 kts 303°
2026-05-07 12:56 48.72873 9.06097 2668 ft 154 kts 297°
2026-05-07 12:56 48.73493 9.04777 2558 ft 154 kts 310°
2026-05-07 12:56 48.74336 9.03798 2455 ft 157 kts 334°
2026-05-07 12:57 48.75382 9.03498 2667 ft 144 kts 356°
2026-05-07 12:57 48.76385 9.03550 2674 ft 145 kts 355°
2026-05-07 12:57 48.77223 9.02917 2720 ft 138 kts 309°
2026-05-07 12:57 48.77772 9.01720 2766 ft 138 kts 295°
2026-05-07 12:58 48.78171 9.00430 2835 ft 134 kts 295°
2026-05-07 12:58 48.78514 8.99096 2839 ft 136 kts 286°
2026-05-07 12:58 48.78739 8.97722 2904 ft 136 kts 283°
2026-05-07 12:58 48.78873 8.96295 2956 ft 137 kts 270°
2026-05-07 12:59 48.78666 8.94870 2944 ft 140 kts 253°
2026-05-07 12:59 48.78303 8.93480 2865 ft 145 kts 256°
2026-05-07 12:59 48.78061 8.92012 2883 ft 139 kts 259°
2026-05-07 12:59 48.78135 8.90626 2741 ft 147 kts 311°
2026-05-07 13:00 48.79111 8.90116 2715 ft 149 kts 353°
2026-05-07 13:00 48.80092 8.90066 2925 ft 140 kts
2026-05-07 13:00 48.81039 8.90497 3014 ft 137 kts
2026-05-07 13:00 48.81964 8.90494 3049 ft 136 kts 348°
2026-05-07 13:01 48.82907 8.90159 2994 ft 140 kts 337°
2026-05-07 13:01 48.83828 8.89631 2956 ft 143 kts 332°
2026-05-07 13:01 48.84675 8.88871 3016 ft 139 kts 324°
2026-05-07 13:01 48.85507 8.88119 3056 ft 139 kts 324°
2026-05-07 13:02 48.86303 8.87327 3180 ft 132 kts 323°
2026-05-07 13:02 48.87060 8.86517 3173 ft 136 kts 317°
2026-05-07 13:02 48.87860 8.85821 3293 ft 134 kts 343°
2026-05-07 13:02 48.88717 8.85369 3351 ft 132 kts 312°
2026-05-07 13:03 48.89196 8.84150 3243 ft 141 kts 289°
2026-05-07 13:03 48.89370 8.82686 3324 ft 135 kts 279°
2026-05-07 13:03 48.89546 8.81326 3454 ft 133 kts 281°
2026-05-07 13:03 48.89752 8.79941 3420 ft 139 kts 281°
2026-05-07 13:04 48.89824 8.78468 3403 ft 141 kts 270°
2026-05-07 13:04 48.89749 8.76983 3475 ft 138 kts 264°
2026-05-07 13:04 48.89788 8.75538 3585 ft 137 kts 279°
2026-05-07 13:04 48.89916 8.74149 3701 ft 132 kts 276°
2026-05-07 13:05 48.90024 8.72728 3665 ft 139 kts 283°
2026-05-07 13:05 48.90473 8.71410 3854 ft 143 kts 308°
2026-05-07 13:05 48.91207 8.70381 4055 ft 147 kts 319°
2026-05-07 13:05 48.92138 8.69733 4244 ft 151 kts 348°
2026-05-07 13:06 48.93166 8.69380 4286 ft 158 kts 341°
2026-05-07 13:06 48.94230 8.68985 4446 ft 157 kts 343°
2026-05-07 13:06 48.95293 8.68636 4631 ft 155 kts 344°
2026-05-07 13:06 48.96352 8.68291 4817 ft 156 kts 344°
2026-05-07 13:07 48.97414 8.67947 4990 ft 156 kts 344°
2026-05-07 13:07 48.98473 8.67600 5163 ft 155 kts 344°
2026-05-07 13:07 48.99529 8.67255 5344 ft 154 kts 344°
2026-05-07 13:07 49.00575 8.66912 5491 ft 155 kts 344°
2026-05-07 13:08 49.01661 8.66554 5491 ft 164 kts 344°
2026-05-07 13:08 49.02798 8.66180 5494 ft 169 kts 345°
2026-05-07 13:08 49.03962 8.65799 5497 ft 172 kts 345°
2026-05-07 13:08 49.05122 8.65417 5498 ft 173 kts 345°
2026-05-07 13:09 49.06303 8.65030 5499 ft 173 kts 345°
2026-05-07 13:09 49.07486 8.64640 5493 ft 173 kts 345°
2026-05-07 13:09 49.08263 8.64383 5500 ft 173 kts 344°
2026-05-07 13:09 49.09448 8.63992 5500 ft 174 kts 345°
2026-05-07 13:10 49.10635 8.63601 5501 ft 174 kts 345°
2026-05-07 13:10 49.11819 8.63210 5499 ft 174 kts 345°
2026-05-07 13:10 49.13003 8.62819 5502 ft 174 kts 345°
2026-05-07 13:10 49.14189 8.62429 5501 ft 174 kts 345°
2026-05-07 13:11 49.15375 8.62037 5506 ft 175 kts 345°
2026-05-07 13:11 49.16565 8.61642 5506 ft 175 kts 345°
2026-05-07 13:11 49.17755 8.61249 5507 ft 175 kts 345°
2026-05-07 13:11 49.18947 8.60857 5508 ft 175 kts 345°
2026-05-07 13:12 49.20141 8.60460 5510 ft 175 kts 345°
2026-05-07 13:12 49.21329 8.60065 5511 ft 175 kts 345°
2026-05-07 13:12 49.22519 8.59672 5509 ft 174 kts 345°
2026-05-07 13:12 49.23690 8.59284 5512 ft 174 kts 345°
2026-05-07 13:13 49.24886 8.58887 5377 ft 180 kts 346°
2026-05-07 13:13 49.26140 8.58472 5128 ft 188 kts 346°
2026-05-07 13:13 49.27436 8.58045 4880 ft 191 kts 346°
2026-05-07 13:13 49.28743 8.57608 4620 ft 193 kts 346°
2026-05-07 13:14 49.30053 8.57171 4360 ft 193 kts 346°
2026-05-07 13:14 49.31367 8.56737 4099 ft 193 kts 346°
2026-05-07 13:14 49.32633 8.56320 3845 ft 178 kts 346°
2026-05-07 13:14 49.33811 8.55926 3587 ft 169 kts 346°
2026-05-07 13:15 49.34920 8.55554 3521 ft 155 kts 345°
2026-05-07 13:15 49.35929 8.55215 3517 ft 143 kts 346°
2026-05-07 13:15 49.36877 8.54901 3518 ft 137 kts 346°
2026-05-07 13:15 49.37787 8.54597 3516 ft 131 kts 346°
2026-05-07 13:16 49.38658 8.54308 3511 ft 128 kts 346°
2026-05-07 13:16 49.39516 8.54019 3513 ft 126 kts 345°
2026-05-07 13:16 49.40365 8.53737 3514 ft 124 kts 346°
2026-05-07 13:16 49.41215 8.53454 3506 ft 125 kts 345°
2026-05-07 13:17 49.42012 8.52799 3269 ft 138 kts 311°
2026-05-07 13:17 49.42491 8.51482 3126 ft 141 kts 297°
2026-05-07 13:17 49.42930 8.50153 3007 ft 143 kts 303°
2026-05-07 13:17 49.43674 8.49131 2821 ft 148 kts 329°
2026-05-07 13:18 49.44667 8.49065 2627 ft 147 kts 24°
2026-05-07 13:18 49.45191 8.50182 2075 ft 129 kts 76°
2026-05-07 13:18 49.45158 8.51460 1515 ft 116 kts 91°
2026-05-07 13:18 49.45441 8.52451 1092 ft 103 kts 36°
2026-05-07 13:19 49.45995 8.52814 950 ft 80 kts 13°
2026-05-07 13:19 49.46548 8.53023 795 ft 83 kts
2026-05-07 13:19 49.47080 8.52883 615 ft 83 kts 313°
2026-05-07 13:19 49.47248 8.52063 364 ft 81 kts 279°
2026-05-07 13:20 49.47276 8.51363 320 ft 44 kts 274°
2026-05-07 13:20 49.47289 8.51012 322 ft 17 kts 270°
2026-05-07 13:20 49.47237 8.50994 321 ft 13 kts 92°
2026-05-07 13:20 49.47230 8.51137 320 ft 14 kts 94°
2026-05-07 13:21 49.47224 8.51312 320 ft 18 kts 90°
2026-05-07 13:21 49.47217 8.51515 319 ft 20 kts 91°
2026-05-07 13:21 49.47208 8.51739 319 ft 22 kts 92°
2026-05-07 13:21 49.47200 8.51980 319 ft 20 kts 87°
2026-05-07 13:22 49.47230 8.52136 319 ft 15 kts 37°
2026-05-07 13:22 49.47321 8.52154 319 ft 14 kts
2026-05-07 13:22 49.47435 8.52164 319 ft 16 kts
2026-05-07 13:22 49.47534 8.52172 319 ft 13 kts
2026-05-07 13:23 49.47582 8.52143 319 ft 6 kts 279°
2026-05-07 13:23 49.47586 8.52073 319 ft 7 kts 272°
2026-05-07 13:23 49.47598 8.52010 319 ft 6 kts 348°
2026-05-07 13:23 49.47611 8.51972 319 ft 1 kts 238°
2026-05-07 13:24 49.47609 8.51970 319 ft 0 kts 182°